sensor_id;sensor_type;location;lat;lon;timestamp;P1;durP1;ratioP1;P2;durP2;ratioP2
30872;SDS011;17579;42.690;2.586;2022-10-12T00:01:14;3.30;;;2.80;;
30872;SDS011;17579;42.690;2.586;2022-10-12T00:03:40;10.40;;;3.15;;
30872;SDS011;17579;42.690;2.586;2022-10-12T00:06:11;4.28;;;2.88;;
30872;SDS011;17579;42.690;2.586;2022-10-12T00:08:38;4.22;;;2.60;;
30872;SDS011;17579;42.690;2.586;2022-10-12T00:11:06;5.32;;;3.17;;
30872;SDS011;17579;42.690;2.586;2022-10-12T00:13:35;3.67;;;2.90;;
30872;SDS011;17579;42.690;2.586;2022-10-12T00:16:01;4.00;;;2.70;;
30872;SDS011;17579;42.690;2.586;2022-10-12T00:18:32;5.45;;;3.15;;
30872;SDS011;17579;42.690;2.586;2022-10-12T00:21:00;5.00;;;2.38;;
30872;SDS011;17579;42.690;2.586;2022-10-12T00:23:28;2.78;;;2.10;;
30872;SDS011;17579;42.690;2.586;2022-10-12T00:25:54;3.92;;;2.60;;
30872;SDS011;17579;42.690;2.586;2022-10-12T00:28:20;4.60;;;2.63;;
30872;SDS011;17579;42.690;2.586;2022-10-12T00:30:45;3.25;;;2.15;;
30872;SDS011;17579;42.690;2.586;2022-10-12T00:33:11;5.13;;;2.53;;
30872;SDS011;17579;42.690;2.586;2022-10-12T00:35:37;6.65;;;2.60;;
30872;SDS011;17579;42.690;2.586;2022-10-12T00:38:02;4.78;;;2.28;;
30872;SDS011;17579;42.690;2.586;2022-10-12T00:40:28;3.47;;;2.20;;
30872;SDS011;17579;42.690;2.586;2022-10-12T00:42:54;4.18;;;2.72;;
30872;SDS011;17579;42.690;2.586;2022-10-12T00:45:19;6.18;;;2.60;;
30872;SDS011;17579;42.690;2.586;2022-10-12T00:47:48;3.28;;;2.20;;
30872;SDS011;17579;42.690;2.586;2022-10-12T00:55:38;3.30;;;2.38;;
30872;SDS011;17579;42.690;2.586;2022-10-12T00:58:11;6.25;;;2.38;;
30872;SDS011;17579;42.690;2.586;2022-10-12T01:00:37;4.30;;;2.30;;
30872;SDS011;17579;42.690;2.586;2022-10-12T01:03:05;6.75;;;2.75;;
30872;SDS011;17579;42.690;2.586;2022-10-12T01:05:33;2.90;;;2.20;;
30872;SDS011;17579;42.690;2.586;2022-10-12T01:08:00;3.78;;;2.60;;
30872;SDS011;17579;42.690;2.586;2022-10-12T01:10:27;3.47;;;2.20;;
30872;SDS011;17579;42.690;2.586;2022-10-12T01:12:52;4.45;;;2.33;;
30872;SDS011;17579;42.690;2.586;2022-10-12T01:15:18;4.82;;;2.67;;
30872;SDS011;17579;42.690;2.586;2022-10-12T01:17:53;6.50;;;2.58;;
30872;SDS011;17579;42.690;2.586;2022-10-12T01:32:15;4.28;;;2.60;;
30872;SDS011;17579;42.690;2.586;2022-10-12T01:34:47;4.03;;;2.20;;
30872;SDS011;17579;42.690;2.586;2022-10-12T01:37:38;4.10;;;2.20;;
30872;SDS011;17579;42.690;2.586;2022-10-12T01:40:19;3.40;;;2.60;;
30872;SDS011;17579;42.690;2.586;2022-10-12T01:42:57;4.00;;;2.33;;
30872;SDS011;17579;42.690;2.586;2022-10-12T01:45:23;2.70;;;2.17;;
30872;SDS011;17579;42.690;2.586;2022-10-12T01:47:50;2.92;;;2.50;;
30872;SDS011;17579;42.690;2.586;2022-10-12T01:50:18;4.07;;;2.63;;
30872;SDS011;17579;42.690;2.586;2022-10-12T01:52:56;4.82;;;2.42;;
30872;SDS011;17579;42.690;2.586;2022-10-12T01:55:35;3.55;;;2.38;;
30872;SDS011;17579;42.690;2.586;2022-10-12T01:58:15;5.88;;;2.40;;
30872;SDS011;17579;42.690;2.586;2022-10-12T02:00:52;5.30;;;2.53;;
30872;SDS011;17579;42.690;2.586;2022-10-12T02:06:23;3.75;;;2.25;;
30872;SDS011;17579;42.690;2.586;2022-10-12T02:08:57;5.07;;;2.55;;
30872;SDS011;17579;42.690;2.586;2022-10-12T02:11:29;3.28;;;2.50;;
30872;SDS011;17579;42.690;2.586;2022-10-12T02:14:07;5.32;;;2.40;;
30872;SDS011;17579;42.690;2.586;2022-10-12T02:16:46;3.88;;;2.40;;
30872;SDS011;17579;42.690;2.586;2022-10-12T02:19:17;4.15;;;2.60;;
30872;SDS011;17579;42.690;2.586;2022-10-12T02:21:48;3.55;;;2.30;;
30872;SDS011;17579;42.690;2.586;2022-10-12T02:24:17;4.55;;;2.58;;
30872;SDS011;17579;42.690;2.586;2022-10-12T02:26:45;4.97;;;2.38;;
30872;SDS011;17579;42.690;2.586;2022-10-12T02:29:19;5.22;;;2.25;;
30872;SDS011;17579;42.690;2.586;2022-10-12T02:31:55;4.38;;;2.17;;
30872;SDS011;17579;42.690;2.586;2022-10-12T02:37:17;3.65;;;2.30;;
30872;SDS011;17579;42.690;2.586;2022-10-12T02:39:53;6.63;;;2.70;;
30872;SDS011;17579;42.690;2.586;2022-10-12T02:42:28;5.50;;;2.17;;
30872;SDS011;17579;42.690;2.586;2022-10-12T02:45:00;3.70;;;2.30;;
30872;SDS011;17579;42.690;2.586;2022-10-12T02:47:31;3.80;;;2.40;;
30872;SDS011;17579;42.690;2.586;2022-10-12T02:49:59;2.80;;;2.13;;
30872;SDS011;17579;42.690;2.586;2022-10-12T02:52:26;7.47;;;2.25;;
30872;SDS011;17579;42.690;2.586;2022-10-12T02:54:53;3.67;;;2.10;;
30872;SDS011;17579;42.690;2.586;2022-10-12T02:57:19;5.13;;;2.35;;
30872;SDS011;17579;42.690;2.586;2022-10-12T02:59:45;4.07;;;2.28;;
30872;SDS011;17579;42.690;2.586;2022-10-12T03:02:10;5.68;;;2.40;;
30872;SDS011;17579;42.690;2.586;2022-10-12T03:04:36;4.57;;;2.55;;
30872;SDS011;17579;42.690;2.586;2022-10-12T03:07:02;3.95;;;2.60;;
30872;SDS011;17579;42.690;2.586;2022-10-12T03:09:28;3.70;;;2.40;;
30872;SDS011;17579;42.690;2.586;2022-10-12T03:11:53;3.35;;;2.30;;
30872;SDS011;17579;42.690;2.586;2022-10-12T03:14:19;5.13;;;2.80;;
30872;SDS011;17579;42.690;2.586;2022-10-12T03:16:46;2.90;;;2.22;;
30872;SDS011;17579;42.690;2.586;2022-10-12T03:19:12;3.35;;;2.15;;
30872;SDS011;17579;42.690;2.586;2022-10-12T03:21:38;5.30;;;2.53;;
30872;SDS011;17579;42.690;2.586;2022-10-12T03:24:04;4.30;;;2.60;;
30872;SDS011;17579;42.690;2.586;2022-10-12T03:26:30;4.00;;;2.42;;
30872;SDS011;17579;42.690;2.586;2022-10-12T03:28:56;6.10;;;2.70;;
30872;SDS011;17579;42.690;2.586;2022-10-12T03:31:22;4.65;;;2.60;;
30872;SDS011;17579;42.690;2.586;2022-10-12T03:33:48;3.85;;;2.33;;
30872;SDS011;17579;42.690;2.586;2022-10-12T03:36:14;2.75;;;2.42;;
30872;SDS011;17579;42.690;2.586;2022-10-12T03:38:39;5.70;;;2.42;;
30872;SDS011;17579;42.690;2.586;2022-10-12T03:41:05;4.07;;;2.63;;
30872;SDS011;17579;42.690;2.586;2022-10-12T03:43:31;3.45;;;2.33;;
30872;SDS011;17579;42.690;2.586;2022-10-12T03:45:57;6.32;;;2.40;;
30872;SDS011;17579;42.690;2.586;2022-10-12T03:48:22;3.65;;;2.42;;
30872;SDS011;17579;42.690;2.586;2022-10-12T03:50:48;6.03;;;2.30;;
30872;SDS011;17579;42.690;2.586;2022-10-12T03:53:15;4.00;;;2.45;;
30872;SDS011;17579;42.690;2.586;2022-10-12T03:55:42;4.07;;;2.40;;
30872;SDS011;17579;42.690;2.586;2022-10-12T03:58:07;3.70;;;2.60;;
30872;SDS011;17579;42.690;2.586;2022-10-12T04:00:33;6.80;;;2.35;;
30872;SDS011;17579;42.690;2.586;2022-10-12T04:02:59;4.15;;;2.58;;
30872;SDS011;17579;42.690;2.586;2022-10-12T04:05:26;3.15;;;2.28;;
30872;SDS011;17579;42.690;2.586;2022-10-12T04:07:52;5.03;;;2.33;;
30872;SDS011;17579;42.690;2.586;2022-10-12T04:10:18;4.72;;;2.55;;
30872;SDS011;17579;42.690;2.586;2022-10-12T04:12:44;5.25;;;2.70;;
30872;SDS011;17579;42.690;2.586;2022-10-12T04:15:10;2.50;;;2.15;;
30872;SDS011;17579;42.690;2.586;2022-10-12T04:17:36;4.93;;;2.40;;
30872;SDS011;17579;42.690;2.586;2022-10-12T04:20:02;4.60;;;2.60;;
30872;SDS011;17579;42.690;2.586;2022-10-12T04:22:27;5.25;;;2.50;;
30872;SDS011;17579;42.690;2.586;2022-10-12T04:24:53;3.22;;;2.58;;
30872;SDS011;17579;42.690;2.586;2022-10-12T04:27:19;3.10;;;2.20;;
30872;SDS011;17579;42.690;2.586;2022-10-12T04:29:45;2.47;;;2.10;;
30872;SDS011;17579;42.690;2.586;2022-10-12T04:32:10;4.80;;;2.38;;
30872;SDS011;17579;42.690;2.586;2022-10-12T04:34:36;2.92;;;2.25;;
30872;SDS011;17579;42.690;2.586;2022-10-12T04:37:02;2.50;;;2.13;;
30872;SDS011;17579;42.690;2.586;2022-10-12T04:39:28;2.75;;;2.03;;
30872;SDS011;17579;42.690;2.586;2022-10-12T04:41:54;5.40;;;2.17;;
30872;SDS011;17579;42.690;2.586;2022-10-12T04:44:20;4.43;;;2.50;;
30872;SDS011;17579;42.690;2.586;2022-10-12T04:46:46;3.08;;;2.17;;
30872;SDS011;17579;42.690;2.586;2022-10-12T04:49:12;3.00;;;2.20;;
30872;SDS011;17579;42.690;2.586;2022-10-12T04:51:38;5.13;;;2.33;;
30872;SDS011;17579;42.690;2.586;2022-10-12T04:54:03;2.20;;;1.95;;
30872;SDS011;17579;42.690;2.586;2022-10-12T04:56:29;4.50;;;2.58;;
30872;SDS011;17579;42.690;2.586;2022-10-12T04:58:55;4.32;;;2.05;;
30872;SDS011;17579;42.690;2.586;2022-10-12T05:01:20;3.90;;;2.45;;
30872;SDS011;17579;42.690;2.586;2022-10-12T05:03:46;5.13;;;2.45;;
30872;SDS011;17579;42.690;2.586;2022-10-12T05:06:12;4.28;;;2.40;;
30872;SDS011;17579;42.690;2.586;2022-10-12T05:08:37;5.57;;;2.63;;
30872;SDS011;17579;42.690;2.586;2022-10-12T05:11:03;3.22;;;2.42;;
30872;SDS011;17579;42.690;2.586;2022-10-12T05:13:29;4.90;;;2.15;;
30872;SDS011;17579;42.690;2.586;2022-10-12T05:15:54;5.40;;;2.25;;
30872;SDS011;17579;42.690;2.586;2022-10-12T05:18:20;4.65;;;2.22;;
30872;SDS011;17579;42.690;2.586;2022-10-12T05:20:46;5.18;;;2.72;;
30872;SDS011;17579;42.690;2.586;2022-10-12T05:23:11;3.33;;;2.15;;
30872;SDS011;17579;42.690;2.586;2022-10-12T05:25:37;5.13;;;2.28;;
30872;SDS011;17579;42.690;2.586;2022-10-12T05:28:03;3.63;;;2.35;;
30872;SDS011;17579;42.690;2.586;2022-10-12T05:30:30;3.97;;;2.30;;
30872;SDS011;17579;42.690;2.586;2022-10-12T05:32:57;3.85;;;2.30;;
30872;SDS011;17579;42.690;2.586;2022-10-12T05:35:22;4.68;;;2.50;;
30872;SDS011;17579;42.690;2.586;2022-10-12T05:37:48;4.32;;;2.33;;
30872;SDS011;17579;42.690;2.586;2022-10-12T05:40:14;5.32;;;2.42;;
30872;SDS011;17579;42.690;2.586;2022-10-12T05:42:40;4.45;;;2.30;;
30872;SDS011;17579;42.690;2.586;2022-10-12T05:45:06;5.50;;;2.17;;
30872;SDS011;17579;42.690;2.586;2022-10-12T05:47:32;4.22;;;2.42;;
30872;SDS011;17579;42.690;2.586;2022-10-12T05:49:58;4.07;;;2.25;;
30872;SDS011;17579;42.690;2.586;2022-10-12T05:52:23;3.75;;;2.30;;
30872;SDS011;17579;42.690;2.586;2022-10-12T05:54:49;2.75;;;1.92;;
30872;SDS011;17579;42.690;2.586;2022-10-12T05:57:15;8.05;;;2.60;;
30872;SDS011;17579;42.690;2.586;2022-10-12T05:59:41;5.47;;;2.53;;
30872;SDS011;17579;42.690;2.586;2022-10-12T06:02:08;4.45;;;2.47;;
30872;SDS011;17579;42.690;2.586;2022-10-12T06:04:37;3.22;;;2.20;;
30872;SDS011;17579;42.690;2.586;2022-10-12T06:07:03;4.07;;;2.28;;
30872;SDS011;17579;42.690;2.586;2022-10-12T06:09:29;4.85;;;2.15;;
30872;SDS011;17579;42.690;2.586;2022-10-12T06:11:54;2.85;;;2.35;;
30872;SDS011;17579;42.690;2.586;2022-10-12T06:14:20;2.42;;;2.05;;
30872;SDS011;17579;42.690;2.586;2022-10-12T06:16:46;3.42;;;2.28;;
30872;SDS011;17579;42.690;2.586;2022-10-12T06:19:11;2.60;;;2.22;;
30872;SDS011;17579;42.690;2.586;2022-10-12T06:21:37;4.25;;;2.17;;
30872;SDS011;17579;42.690;2.586;2022-10-12T06:24:03;7.40;;;2.33;;
30872;SDS011;17579;42.690;2.586;2022-10-12T06:26:29;3.67;;;2.20;;
30872;SDS011;17579;42.690;2.586;2022-10-12T06:28:54;4.18;;;2.50;;
30872;SDS011;17579;42.690;2.586;2022-10-12T06:31:20;5.18;;;1.98;;
30872;SDS011;17579;42.690;2.586;2022-10-12T06:33:46;4.60;;;2.42;;
30872;SDS011;17579;42.690;2.586;2022-10-12T06:36:14;3.22;;;2.50;;
30872;SDS011;17579;42.690;2.586;2022-10-12T06:38:39;3.88;;;2.08;;
30872;SDS011;17579;42.690;2.586;2022-10-12T06:41:05;3.42;;;2.28;;
30872;SDS011;17579;42.690;2.586;2022-10-12T06:43:31;5.82;;;2.30;;
30872;SDS011;17579;42.690;2.586;2022-10-12T06:46:00;3.00;;;2.10;;
30872;SDS011;17579;42.690;2.586;2022-10-12T06:48:25;3.47;;;2.33;;
30872;SDS011;17579;42.690;2.586;2022-10-12T06:50:51;4.35;;;2.70;;
30872;SDS011;17579;42.690;2.586;2022-10-12T06:53:17;4.53;;;1.98;;
30872;SDS011;17579;42.690;2.586;2022-10-12T06:55:43;3.60;;;2.40;;
30872;SDS011;17579;42.690;2.586;2022-10-12T06:58:09;5.25;;;2.17;;
30872;SDS011;17579;42.690;2.586;2022-10-12T07:00:35;4.50;;;2.28;;
30872;SDS011;17579;42.690;2.586;2022-10-12T07:03:01;5.22;;;2.30;;
30872;SDS011;17579;42.690;2.586;2022-10-12T07:05:28;3.55;;;2.25;;
30872;SDS011;17579;42.690;2.586;2022-10-12T07:07:54;3.70;;;1.92;;
30872;SDS011;17579;42.690;2.586;2022-10-12T07:10:19;3.30;;;2.30;;
30872;SDS011;17579;42.690;2.586;2022-10-12T07:12:45;5.50;;;2.35;;
30872;SDS011;17579;42.690;2.586;2022-10-12T07:15:11;5.10;;;2.60;;
30872;SDS011;17579;42.690;2.586;2022-10-12T07:17:37;4.70;;;2.15;;
30872;SDS011;17579;42.690;2.586;2022-10-12T07:20:03;8.07;;;2.25;;
30872;SDS011;17579;42.690;2.586;2022-10-12T07:22:29;5.47;;;2.55;;
30872;SDS011;17579;42.690;2.586;2022-10-12T07:24:55;4.40;;;2.10;;
30872;SDS011;17579;42.690;2.586;2022-10-12T07:27:21;4.25;;;2.08;;
30872;SDS011;17579;42.690;2.586;2022-10-12T07:29:46;3.03;;;2.08;;
30872;SDS011;17579;42.690;2.586;2022-10-12T07:32:12;5.15;;;2.08;;
30872;SDS011;17579;42.690;2.586;2022-10-12T07:34:38;2.20;;;2.00;;
30872;SDS011;17579;42.690;2.586;2022-10-12T07:37:04;3.63;;;2.10;;
30872;SDS011;17579;42.690;2.586;2022-10-12T07:39:29;3.45;;;2.28;;
30872;SDS011;17579;42.690;2.586;2022-10-12T07:41:55;4.60;;;2.05;;
30872;SDS011;17579;42.690;2.586;2022-10-12T07:44:21;3.28;;;2.15;;
30872;SDS011;17579;42.690;2.586;2022-10-12T07:46:48;3.97;;;2.10;;
30872;SDS011;17579;42.690;2.586;2022-10-12T07:49:14;3.25;;;2.13;;
30872;SDS011;17579;42.690;2.586;2022-10-12T07:51:41;3.72;;;2.00;;
30872;SDS011;17579;42.690;2.586;2022-10-12T07:54:07;2.45;;;2.00;;
30872;SDS011;17579;42.690;2.586;2022-10-12T07:56:33;4.47;;;1.98;;
30872;SDS011;17579;42.690;2.586;2022-10-12T07:58:59;4.57;;;2.00;;
30872;SDS011;17579;42.690;2.586;2022-10-12T08:01:26;3.33;;;2.05;;
30872;SDS011;17579;42.690;2.586;2022-10-12T08:03:57;3.88;;;2.10;;
30872;SDS011;17579;42.690;2.586;2022-10-12T08:06:24;3.67;;;2.10;;
30872;SDS011;17579;42.690;2.586;2022-10-12T08:08:52;4.15;;;2.00;;
30872;SDS011;17579;42.690;2.586;2022-10-12T08:11:19;4.82;;;2.20;;
30872;SDS011;17579;42.690;2.586;2022-10-12T08:13:45;4.90;;;2.25;;
30872;SDS011;17579;42.690;2.586;2022-10-12T08:16:13;2.85;;;2.30;;
30872;SDS011;17579;42.690;2.586;2022-10-12T08:18:41;4.35;;;2.13;;
30872;SDS011;17579;42.690;2.586;2022-10-12T08:21:08;5.60;;;2.38;;
30872;SDS011;17579;42.690;2.586;2022-10-12T08:23:36;4.45;;;2.42;;
30872;SDS011;17579;42.690;2.586;2022-10-12T08:26:02;4.80;;;2.00;;
30872;SDS011;17579;42.690;2.586;2022-10-12T08:28:29;2.80;;;1.80;;
30872;SDS011;17579;42.690;2.586;2022-10-12T08:30:56;3.35;;;2.20;;
30872;SDS011;17579;42.690;2.586;2022-10-12T08:33:26;2.80;;;1.92;;
30872;SDS011;17579;42.690;2.586;2022-10-12T08:35:54;4.40;;;1.92;;
30872;SDS011;17579;42.690;2.586;2022-10-12T08:38:20;3.28;;;1.90;;
30872;SDS011;17579;42.690;2.586;2022-10-12T08:40:47;4.05;;;2.03;;
30872;SDS011;17579;42.690;2.586;2022-10-12T08:43:21;3.67;;;2.08;;
30872;SDS011;17579;42.690;2.586;2022-10-12T08:46:05;3.28;;;2.17;;
30872;SDS011;17579;42.690;2.586;2022-10-12T08:48:33;3.22;;;1.90;;
30872;SDS011;17579;42.690;2.586;2022-10-12T08:51:09;4.10;;;2.10;;
30872;SDS011;17579;42.690;2.586;2022-10-12T08:56:26;3.00;;;2.00;;
30872;SDS011;17579;42.690;2.586;2022-10-12T08:58:53;3.88;;;2.28;;
30872;SDS011;17579;42.690;2.586;2022-10-12T09:01:20;3.90;;;2.03;;
30872;SDS011;17579;42.690;2.586;2022-10-12T09:04:15;2.13;;;1.90;;
30872;SDS011;17579;42.690;2.586;2022-10-12T09:15:44;4.95;;;2.10;;
30872;SDS011;17579;42.690;2.586;2022-10-12T09:18:26;4.35;;;2.00;;
30872;SDS011;17579;42.690;2.586;2022-10-12T09:21:04;6.47;;;2.50;;
30872;SDS011;17579;42.690;2.586;2022-10-12T09:23:34;3.05;;;2.55;;
30872;SDS011;17579;42.690;2.586;2022-10-12T09:29:01;2.80;;;1.85;;
30872;SDS011;17579;42.690;2.586;2022-10-12T09:34:34;4.20;;;2.00;;
30872;SDS011;17579;42.690;2.586;2022-10-12T09:37:03;3.83;;;2.03;;
30872;SDS011;17579;42.690;2.586;2022-10-12T09:39:30;5.60;;;2.15;;
30872;SDS011;17579;42.690;2.586;2022-10-12T09:41:58;3.72;;;1.85;;
30872;SDS011;17579;42.690;2.586;2022-10-12T09:44:28;2.65;;;2.15;;
30872;SDS011;17579;42.690;2.586;2022-10-12T09:49:54;3.10;;;1.92;;
30872;SDS011;17579;42.690;2.586;2022-10-12T09:52:42;2.78;;;1.63;;
30872;SDS011;17579;42.690;2.586;2022-10-12T09:57:56;4.13;;;1.65;;
30872;SDS011;17579;42.690;2.586;2022-10-12T10:00:28;1.63;;;1.50;;
30872;SDS011;17579;42.690;2.586;2022-10-12T10:02:58;4.35;;;1.60;;
30872;SDS011;17579;42.690;2.586;2022-10-12T10:05:29;2.45;;;1.52;;
30872;SDS011;17579;42.690;2.586;2022-10-12T10:10:54;4.03;;;1.42;;
30872;SDS011;17579;42.690;2.586;2022-10-12T10:13:21;3.65;;;1.77;;
30872;SDS011;17579;42.690;2.586;2022-10-12T10:15:50;2.05;;;1.60;;
30872;SDS011;17579;42.690;2.586;2022-10-12T10:18:32;3.47;;;1.63;;
30872;SDS011;17579;42.690;2.586;2022-10-12T10:21:00;2.25;;;1.65;;
30872;SDS011;17579;42.690;2.586;2022-10-12T10:23:34;2.72;;;1.50;;
30872;SDS011;17579;42.690;2.586;2022-10-12T10:26:15;2.65;;;1.60;;
30872;SDS011;17579;42.690;2.586;2022-10-12T10:28:45;3.45;;;1.60;;
30872;SDS011;17579;42.690;2.586;2022-10-12T10:31:20;2.70;;;1.50;;
30872;SDS011;17579;42.690;2.586;2022-10-12T10:36:50;2.22;;;1.70;;
30872;SDS011;17579;42.690;2.586;2022-10-12T10:39:27;3.38;;;1.58;;
30872;SDS011;17579;42.690;2.586;2022-10-12T10:42:11;2.63;;;1.48;;
30872;SDS011;17579;42.690;2.586;2022-10-12T10:44:44;3.28;;;1.30;;
30872;SDS011;17579;42.690;2.586;2022-10-12T10:47:13;1.98;;;1.40;;
30872;SDS011;17579;42.690;2.586;2022-10-12T10:49:40;2.22;;;1.30;;
30872;SDS011;17579;42.690;2.586;2022-10-12T10:57:55;2.90;;;1.40;;
30872;SDS011;17579;42.690;2.586;2022-10-12T11:00:26;1.98;;;1.40;;
30872;SDS011;17579;42.690;2.586;2022-10-12T11:02:54;4.25;;;1.48;;
30872;SDS011;17579;42.690;2.586;2022-10-12T11:05:31;2.45;;;1.33;;
30872;SDS011;17579;42.690;2.586;2022-10-12T11:08:01;2.30;;;1.52;;
30872;SDS011;17579;42.690;2.586;2022-10-12T11:10:39;2.80;;;1.42;;
30872;SDS011;17579;42.690;2.586;2022-10-12T11:13:24;3.17;;;1.25;;
30872;SDS011;17579;42.690;2.586;2022-10-12T11:15:58;1.50;;;1.40;;
30872;SDS011;17579;42.690;2.586;2022-10-12T11:21:37;1.55;;;1.30;;
30872;SDS011;17579;42.690;2.586;2022-10-12T11:24:15;1.45;;;1.20;;
30872;SDS011;17579;42.690;2.586;2022-10-12T11:26:55;1.15;;;0.90;;
30872;SDS011;17579;42.690;2.586;2022-10-12T11:29:27;1.38;;;1.00;;
30872;SDS011;17579;42.690;2.586;2022-10-12T11:32:04;3.40;;;1.20;;
30872;SDS011;17579;42.690;2.586;2022-10-12T11:34:55;0.95;;;0.75;;
30872;SDS011;17579;42.690;2.586;2022-10-12T11:37:30;1.40;;;1.25;;
30872;SDS011;17579;42.690;2.586;2022-10-12T11:40:00;1.52;;;1.17;;
30872;SDS011;17579;42.690;2.586;2022-10-12T11:42:32;1.50;;;1.20;;
30872;SDS011;17579;42.690;2.586;2022-10-12T11:45:04;1.42;;;1.33;;
30872;SDS011;17579;42.690;2.586;2022-10-12T11:47:44;1.90;;;1.15;;
30872;SDS011;17579;42.690;2.586;2022-10-12T11:53:10;1.50;;;1.30;;
30872;SDS011;17579;42.690;2.586;2022-10-12T11:56:16;2.53;;;1.30;;
30872;SDS011;17579;42.690;2.586;2022-10-12T11:58:48;3.67;;;1.40;;
30872;SDS011;17579;42.690;2.586;2022-10-12T12:01:32;1.85;;;1.40;;
30872;SDS011;17579;42.690;2.586;2022-10-12T12:07:02;2.63;;;1.30;;
30872;SDS011;17579;42.690;2.586;2022-10-12T12:09:38;2.75;;;1.35;;
30872;SDS011;17579;42.690;2.586;2022-10-12T12:12:13;3.30;;;1.17;;
30872;SDS011;17579;42.690;2.586;2022-10-12T12:14:58;2.92;;;1.55;;
30872;SDS011;17579;42.690;2.586;2022-10-12T12:17:30;2.33;;;1.25;;
30872;SDS011;17579;42.690;2.586;2022-10-12T12:19:58;2.83;;;1.30;;
30872;SDS011;17579;42.690;2.586;2022-10-12T12:22:25;1.58;;;1.23;;
30872;SDS011;17579;42.690;2.586;2022-10-12T12:25:19;1.65;;;1.10;;
30872;SDS011;17579;42.690;2.586;2022-10-12T12:27:53;2.45;;;1.30;;
30872;SDS011;17579;42.690;2.586;2022-10-12T12:30:23;1.98;;;1.30;;
30872;SDS011;17579;42.690;2.586;2022-10-12T12:32:54;2.13;;;1.20;;
30872;SDS011;17579;42.690;2.586;2022-10-12T12:35:26;2.38;;;1.30;;
30872;SDS011;17579;42.690;2.586;2022-10-12T12:38:17;1.83;;;1.15;;
30872;SDS011;17579;42.690;2.586;2022-10-12T12:41:03;2.03;;;1.35;;
30872;SDS011;17579;42.690;2.586;2022-10-12T12:43:35;1.10;;;0.90;;
30872;SDS011;17579;42.690;2.586;2022-10-12T12:46:14;1.50;;;1.40;;
30872;SDS011;17579;42.690;2.586;2022-10-12T12:48:55;2.25;;;1.50;;
30872;SDS011;17579;42.690;2.586;2022-10-12T12:51:31;2.17;;;1.70;;
30872;SDS011;17579;42.690;2.586;2022-10-12T12:54:04;2.40;;;1.27;;
30872;SDS011;17579;42.690;2.586;2022-10-12T13:11:33;1.48;;;1.38;;
30872;SDS011;17579;42.690;2.586;2022-10-12T13:19:58;3.97;;;1.42;;
30872;SDS011;17579;42.690;2.586;2022-10-12T13:22:32;2.47;;;1.63;;
30872;SDS011;17579;42.690;2.586;2022-10-12T13:25:05;4.10;;;2.08;;
30872;SDS011;17579;42.690;2.586;2022-10-12T13:27:40;4.75;;;2.20;;
30872;SDS011;17579;42.690;2.586;2022-10-12T13:30:25;7.45;;;2.10;;
30872;SDS011;17579;42.690;2.586;2022-10-12T13:33:02;4.45;;;2.50;;
30872;SDS011;17579;42.690;2.586;2022-10-12T13:35:48;5.43;;;2.90;;
30872;SDS011;17579;42.690;2.586;2022-10-12T13:38:24;6.20;;;2.58;;
30872;SDS011;17579;42.690;2.586;2022-10-12T13:40:53;3.13;;;2.47;;
30872;SDS011;17579;42.690;2.586;2022-10-12T13:43:28;3.53;;;2.30;;
30872;SDS011;17579;42.690;2.586;2022-10-12T13:46:06;2.90;;;2.55;;
30872;SDS011;17579;42.690;2.586;2022-10-12T13:48:36;3.85;;;2.05;;
30872;SDS011;17579;42.690;2.586;2022-10-12T13:51:02;3.80;;;2.20;;
30872;SDS011;17579;42.690;2.586;2022-10-12T13:53:33;6.72;;;2.60;;
30872;SDS011;17579;42.690;2.586;2022-10-12T13:56:12;3.90;;;2.17;;
30872;SDS011;17579;42.690;2.586;2022-10-12T13:58:42;3.22;;;2.53;;
30872;SDS011;17579;42.690;2.586;2022-10-12T14:01:11;4.18;;;2.33;;
30872;SDS011;17579;42.690;2.586;2022-10-12T14:03:41;4.47;;;2.80;;
30872;SDS011;17579;42.690;2.586;2022-10-12T14:09:04;3.72;;;2.25;;
30872;SDS011;17579;42.690;2.586;2022-10-12T14:11:39;4.03;;;2.33;;
30872;SDS011;17579;42.690;2.586;2022-10-12T14:14:06;5.13;;;3.28;;
30872;SDS011;17579;42.690;2.586;2022-10-12T14:16:49;4.25;;;2.63;;
30872;SDS011;17579;42.690;2.586;2022-10-12T14:19:19;7.70;;;4.13;;
30872;SDS011;17579;42.690;2.586;2022-10-12T14:22:00;7.78;;;4.03;;
30872;SDS011;17579;42.690;2.586;2022-10-12T14:24:26;7.82;;;4.20;;
30872;SDS011;17579;42.690;2.586;2022-10-12T14:27:00;6.43;;;4.28;;
30872;SDS011;17579;42.690;2.586;2022-10-12T14:29:35;7.88;;;4.03;;
30872;SDS011;17579;42.690;2.586;2022-10-12T14:32:34;3.67;;;3.38;;
30872;SDS011;17579;42.690;2.586;2022-10-12T14:35:03;2.97;;;2.70;;
30872;SDS011;17579;42.690;2.586;2022-10-12T14:37:45;3.88;;;2.92;;
30872;SDS011;17579;42.690;2.586;2022-10-12T14:43:04;4.88;;;3.83;;
30872;SDS011;17579;42.690;2.586;2022-10-12T14:45:45;6.50;;;3.45;;
30872;SDS011;17579;42.690;2.586;2022-10-12T14:48:12;4.70;;;3.80;;
30872;SDS011;17579;42.690;2.586;2022-10-12T14:50:41;3.75;;;3.30;;
30872;SDS011;17579;42.690;2.586;2022-10-12T14:53:08;5.80;;;3.15;;
30872;SDS011;17579;42.690;2.586;2022-10-12T14:55:36;8.27;;;3.70;;
30872;SDS011;17579;42.690;2.586;2022-10-12T14:58:02;4.57;;;3.30;;
30872;SDS011;17579;42.690;2.586;2022-10-12T15:00:32;4.70;;;3.45;;
30872;SDS011;17579;42.690;2.586;2022-10-12T15:03:00;4.47;;;3.20;;
30872;SDS011;17579;42.690;2.586;2022-10-12T15:05:27;7.05;;;3.00;;
30872;SDS011;17579;42.690;2.586;2022-10-12T15:07:56;5.57;;;3.20;;
30872;SDS011;17579;42.690;2.586;2022-10-12T15:10:23;4.03;;;3.03;;
30872;SDS011;17579;42.690;2.586;2022-10-12T15:12:50;6.85;;;3.50;;
30872;SDS011;17579;42.690;2.586;2022-10-12T15:15:24;5.45;;;2.90;;
30872;SDS011;17579;42.690;2.586;2022-10-12T15:18:10;7.30;;;3.35;;
30872;SDS011;17579;42.690;2.586;2022-10-12T15:20:36;6.07;;;2.97;;
30872;SDS011;17579;42.690;2.586;2022-10-12T15:23:03;3.75;;;3.13;;
30872;SDS011;17579;42.690;2.586;2022-10-12T15:28:16;5.30;;;3.63;;
30872;SDS011;17579;42.690;2.586;2022-10-12T15:30:42;6.38;;;3.13;;
30872;SDS011;17579;42.690;2.586;2022-10-12T15:33:11;3.42;;;3.13;;
30872;SDS011;17579;42.690;2.586;2022-10-12T15:35:37;3.90;;;2.65;;
30872;SDS011;17579;42.690;2.586;2022-10-12T15:38:04;4.03;;;3.08;;
30872;SDS011;17579;42.690;2.586;2022-10-12T15:40:30;3.60;;;3.30;;
30872;SDS011;17579;42.690;2.586;2022-10-12T15:42:57;5.13;;;3.10;;
30872;SDS011;17579;42.690;2.586;2022-10-12T15:45:25;6.00;;;3.00;;
30872;SDS011;17579;42.690;2.586;2022-10-12T15:47:54;4.53;;;2.85;;
30872;SDS011;17579;42.690;2.586;2022-10-12T15:50:22;6.28;;;2.80;;
30872;SDS011;17579;42.690;2.586;2022-10-12T15:52:50;4.28;;;2.90;;
30872;SDS011;17579;42.690;2.586;2022-10-12T15:55:23;4.03;;;2.58;;
30872;SDS011;17579;42.690;2.586;2022-10-12T15:57:50;4.40;;;3.00;;
30872;SDS011;17579;42.690;2.586;2022-10-12T16:00:18;4.35;;;2.85;;
30872;SDS011;17579;42.690;2.586;2022-10-12T16:02:45;5.63;;;2.95;;
30872;SDS011;17579;42.690;2.586;2022-10-12T16:05:18;3.17;;;2.60;;
30872;SDS011;17579;42.690;2.586;2022-10-12T16:07:49;4.35;;;2.95;;
30872;SDS011;17579;42.690;2.586;2022-10-12T16:10:16;5.50;;;3.03;;
30872;SDS011;17579;42.690;2.586;2022-10-12T16:12:46;5.07;;;3.00;;
30872;SDS011;17579;42.690;2.586;2022-10-12T16:15:14;4.55;;;2.63;;
30872;SDS011;17579;42.690;2.586;2022-10-12T16:17:41;6.53;;;3.08;;
30872;SDS011;17579;42.690;2.586;2022-10-12T16:20:07;3.70;;;3.22;;
30872;SDS011;17579;42.690;2.586;2022-10-12T16:22:34;4.05;;;3.03;;
30872;SDS011;17579;42.690;2.586;2022-10-12T16:25:00;6.20;;;2.55;;
30872;SDS011;17579;42.690;2.586;2022-10-12T16:27:27;3.70;;;2.90;;
30872;SDS011;17579;42.690;2.586;2022-10-12T16:29:54;4.32;;;2.67;;
30872;SDS011;17579;42.690;2.586;2022-10-12T16:32:19;5.22;;;2.88;;
30872;SDS011;17579;42.690;2.586;2022-10-12T16:34:45;4.70;;;3.25;;
30872;SDS011;17579;42.690;2.586;2022-10-12T16:37:11;5.53;;;3.17;;
30872;SDS011;17579;42.690;2.586;2022-10-12T16:39:36;4.90;;;3.25;;